Time;durP1;ratioP1;P1;durP2;ratioP2;P2;SDS_P1;SDS_P2;PMS_P1;PMS_P2;Temp;Humidity;BMP_temperature;BMP_pressure;BME280_temperature;BME280_humidity;BME280_pressure;Samples;Min_cycle;Max_cycle;Signal;HPM_P1;HPM_P2
2021/09/29 00:02:22;;;;;;;;;;;21.40;49.20;;;;;;8363937;28;20369;-48
2021/09/29 00:06:23;;;;;;;;;;;21.30;49.20;;;;;;8364416;28;19917;-49
2021/09/29 00:10:23;;;;;;;;;;;21.40;49.20;;;;;;8362858;28;19988;-48
2021/09/29 00:14:24;;;;;;;;;;;21.40;49.20;;;;;;8363939;28;19932;-49
2021/09/29 00:18:24;;;;;;;;;;;21.30;49.20;;;;;;8363515;28;19970;-49
2021/09/29 00:22:25;;;;;;;;;;;21.30;49.20;;;;;;8362992;28;20005;-51
2021/09/29 00:26:25;;;;;;;;;;;21.30;49.20;;;;;;8364041;28;19913;-49
2021/09/29 00:30:26;;;;;;;;;;;21.30;49.20;;;;;;8363325;28;19959;-49
2021/09/29 00:34:35;;;;;;;;;;;21.30;49.20;;;;;;8362544;28;19925;-52
2021/09/29 00:38:36;;;;;;;;;;;21.30;49.20;;;;;;8363011;28;19923;-49
2021/09/29 00:42:36;;;;;;;;;;;21.30;49.20;;;;;;8363607;28;19920;-49
2021/09/29 00:46:37;;;;;;;;;;;21.30;49.20;;;;;;8362335;28;19917;-50
2021/09/29 00:50:38;;;;;;;;;;;21.30;49.20;;;;;;8362867;28;20396;-49
2021/09/29 00:54:38;;;;;;;;;;;21.30;49.20;;;;;;8362587;28;19926;-50
2021/09/29 00:58:39;;;;;;;;;;;21.20;49.20;;;;;;8362602;28;20251;-48
2021/09/29 01:02:39;;;;;;;;;;;21.30;49.20;;;;;;8363389;28;19923;-48
2021/09/29 01:06:47;;;;;;;;;;;21.30;49.30;;;;;;8363072;28;19931;-49
2021/09/29 01:10:56;;;;;;;;;;;21.20;49.20;;;;;;8386439;28;20377;-49
2021/09/29 01:14:58;;;;;;;;;;;21.20;49.20;;;;;;8395327;28;19928;-48
2021/09/29 01:19:00;;;;;;;;;;;21.30;49.30;;;;;;8369544;28;20369;-48
2021/09/29 01:23:07;;;;;;;;;;;21.20;49.20;;;;;;8368475;28;20366;-49
2021/09/29 01:27:08;;;;;;;;;;;21.20;49.20;;;;;;8368918;28;19951;-48
2021/09/29 01:31:08;;;;;;;;;;;21.20;49.30;;;;;;8368197;28;20328;-47
2021/09/29 01:35:09;;;;;;;;;;;21.20;49.20;;;;;;8368615;28;19944;-51
2021/09/29 01:39:10;;;;;;;;;;;21.20;49.30;;;;;;8369154;28;19956;-51
2021/09/29 01:43:11;;;;;;;;;;;21.20;49.30;;;;;;8367901;28;20415;-50
2021/09/29 01:47:13;;;;;;;;;;;21.20;49.30;;;;;;8367861;28;19917;-49
2021/09/29 01:51:14;;;;;;;;;;;21.20;49.30;;;;;;8367901;28;19913;-49
2021/09/29 01:55:17;;;;;;;;;;;21.20;49.30;;;;;;8368126;28;19917;-49
2021/09/29 01:59:17;;;;;;;;;;;21.20;49.30;;;;;;8367490;28;19924;-49
2021/09/29 02:03:21;;;;;;;;;;;21.20;49.30;;;;;;8367327;28;19916;-49
2021/09/29 02:07:21;;;;;;;;;;;21.20;49.30;;;;;;8366977;28;19922;-49
2021/09/29 02:11:22;;;;;;;;;;;21.20;49.30;;;;;;8367585;28;19924;-49
2021/09/29 02:15:23;;;;;;;;;;;21.10;49.20;;;;;;8367444;28;20015;-49
2021/09/29 02:19:24;;;;;;;;;;;21.20;49.30;;;;;;8366728;28;20253;-50
2021/09/29 02:23:25;;;;;;;;;;;21.20;49.30;;;;;;8366032;28;20354;-48
2021/09/29 02:27:25;;;;;;;;;;;21.20;49.30;;;;;;8366932;28;20020;-49
2021/09/29 02:31:26;;;;;;;;;;;21.10;49.20;;;;;;8367043;28;19947;-49
2021/09/29 02:35:26;;;;;;;;;;;21.10;49.20;;;;;;8366382;28;19947;-49
2021/09/29 02:39:27;;;;;;;;;;;21.10;49.20;;;;;;8366337;28;20266;-52
2021/09/29 02:43:27;;;;;;;;;;;21.10;49.20;;;;;;8365778;28;20381;-52
2021/09/29 02:47:28;;;;;;;;;;;21.20;49.30;;;;;;8366750;28;19943;-50
2021/09/29 02:51:28;;;;;;;;;;;21.20;49.30;;;;;;8366031;28;19956;-49
2021/09/29 02:55:29;;;;;;;;;;;21.10;49.30;;;;;;8365436;28;19931;-49
2021/09/29 02:59:29;;;;;;;;;;;21.10;49.20;;;;;;8366074;28;20388;-49
2021/09/29 03:03:30;;;;;;;;;;;21.10;49.20;;;;;;8365600;28;19971;-49
2021/09/29 03:07:30;;;;;;;;;;;21.10;49.20;;;;;;8365654;28;19963;-49
2021/09/29 03:11:31;;;;;;;;;;;21.10;49.30;;;;;;8365216;28;20023;-49
2021/09/29 03:15:31;;;;;;;;;;;21.10;49.20;;;;;;8365260;28;19912;-49
2021/09/29 03:19:31;;;;;;;;;;;21.10;49.20;;;;;;8364785;28;19916;-49
2021/09/29 03:23:32;;;;;;;;;;;21.10;49.20;;;;;;8365566;28;19912;-49
2021/09/29 03:27:33;;;;;;;;;;;21.10;49.30;;;;;;8365056;28;19917;-48
2021/09/29 03:31:33;;;;;;;;;;;21.10;49.30;;;;;;8364282;28;20019;-48
2021/09/29 03:35:34;;;;;;;;;;;21.00;49.70;;;;;;8364406;28;19913;-49
2021/09/29 03:39:35;;;;;;;;;;;21.10;49.20;;;;;;8365215;28;20373;-50
2021/09/29 03:43:35;;;;;;;;;;;21.10;49.20;;;;;;8363973;28;19916;-50
2021/09/29 03:47:36;;;;;;;;;;;21.10;49.30;;;;;;8364529;28;19916;-49
2021/09/29 03:51:36;;;;;;;;;;;21.00;49.20;;;;;;8364124;28;19967;-49
2021/09/29 03:55:37;;;;;;;;;;;21.00;49.20;;;;;;8363468;28;19950;-48
2021/09/29 03:59:37;;;;;;;;;;;21.00;49.20;;;;;;8364966;28;19944;-49
2021/09/29 04:03:38;;;;;;;;;;;21.00;49.30;;;;;;8367999;28;19927;-48
2021/09/29 04:07:38;;;;;;;;;;;21.00;49.20;;;;;;8396412;28;19927;-51
2021/09/29 04:11:39;;;;;;;;;;;21.00;49.20;;;;;;8397024;28;19924;-49
2021/09/29 04:15:41;;;;;;;;;;;21.00;49.20;;;;;;8396916;28;21293;-49
2021/09/29 04:19:42;;;;;;;;;;;21.00;49.20;;;;;;8396132;28;19916;-50
2021/09/29 04:23:42;;;;;;;;;;;21.00;49.20;;;;;;8396764;28;19924;-49
2021/09/29 04:27:43;;;;;;;;;;;21.00;49.20;;;;;;8396350;28;20365;-49
2021/09/29 04:31:43;;;;;;;;;;;21.00;49.20;;;;;;8396517;28;20381;-49
2021/09/29 04:35:44;;;;;;;;;;;21.00;49.20;;;;;;8396608;28;19939;-49
2021/09/29 04:39:44;;;;;;;;;;;21.00;49.20;;;;;;8396428;28;19917;-49
2021/09/29 04:43:45;;;;;;;;;;;21.00;49.20;;;;;;8395703;28;19927;-49
2021/09/29 04:47:45;;;;;;;;;;;21.00;49.30;;;;;;8401900;28;19912;-49
2021/09/29 04:51:46;;;;;;;;;;;21.00;49.30;;;;;;8403508;28;19939;-49
2021/09/29 04:55:46;;;;;;;;;;;21.00;49.20;;;;;;8402293;28;19916;-49
2021/09/29 04:59:47;;;;;;;;;;;21.00;49.20;;;;;;8402919;28;19939;-49
2021/09/29 05:03:47;;;;;;;;;;;21.00;49.30;;;;;;8402645;28;20424;-49
2021/09/29 05:07:49;;;;;;;;;;;20.90;49.20;;;;;;8402677;28;20368;-49
2021/09/29 05:11:58;;;;;;;;;;;20.90;49.20;;;;;;8402082;28;20023;-49
2021/09/29 05:15:59;;;;;;;;;;;20.90;49.30;;;;;;8402032;28;20015;-48
2021/09/29 05:19:59;;;;;;;;;;;20.90;49.20;;;;;;8401500;28;20266;-49
2021/09/29 05:24:00;;;;;;;;;;;20.90;49.20;;;;;;8401692;28;19969;-49
2021/09/29 05:28:01;;;;;;;;;;;20.90;49.20;;;;;;8402320;28;20336;-49
2021/09/29 05:32:02;;;;;;;;;;;20.90;49.20;;;;;;8401084;28;19947;-49
2021/09/29 05:36:02;;;;;;;;;;;20.90;49.20;;;;;;8401359;28;19920;-49
2021/09/29 05:40:03;;;;;;;;;;;20.90;49.20;;;;;;8401444;28;19940;-50
2021/09/29 05:44:04;;;;;;;;;;;20.80;49.20;;;;;;8401350;28;19916;-50
2021/09/29 05:48:04;;;;;;;;;;;20.90;49.30;;;;;;8401007;28;19917;-48
2021/09/29 05:52:05;;;;;;;;;;;20.90;49.30;;;;;;8400781;28;19924;-50
2021/09/29 05:56:07;;;;;;;;;;;20.90;49.30;;;;;;8399451;28;19916;-48
2021/09/29 06:00:07;;;;;;;;;;;20.80;49.80;;;;;;8401081;28;19957;-49
2021/09/29 06:04:10;;;;;;;;;;;20.90;49.30;;;;;;8400244;28;20331;-48
2021/09/29 06:08:10;;;;;;;;;;;20.90;49.30;;;;;;8400794;28;20293;-49
2021/09/29 06:12:11;;;;;;;;;;;20.90;49.30;;;;;;8400217;28;19967;-49
2021/09/29 06:16:11;;;;;;;;;;;20.90;49.30;;;;;;8399899;28;19974;-48
2021/09/29 06:20:12;;;;;;;;;;;20.90;49.30;;;;;;8400538;28;19924;-49
2021/09/29 06:24:13;;;;;;;;;;;20.90;49.30;;;;;;8373519;28;19917;-48
2021/09/29 06:28:13;;;;;;;;;;;20.90;49.20;;;;;;8366256;28;19921;-49
2021/09/29 06:32:13;;;;;;;;;;;20.90;49.20;;;;;;8366762;28;20341;-50
2021/09/29 06:36:14;;;;;;;;;;;20.90;49.20;;;;;;8367045;28;19917;-49
2021/09/29 06:40:15;;;;;;;;;;;20.90;49.30;;;;;;8365853;28;20011;-49
2021/09/29 06:44:16;;;;;;;;;;;20.90;49.30;;;;;;8366096;28;19923;-49
2021/09/29 06:48:16;;;;;;;;;;;20.90;49.30;;;;;;8366055;28;19920;-49
2021/09/29 06:52:17;;;;;;;;;;;20.90;49.30;;;;;;8365551;28;19927;-50
2021/09/29 06:56:17;;;;;;;;;;;20.90;49.30;;;;;;8366143;28;19913;-48
2021/09/29 07:00:18;;;;;;;;;;;20.90;49.30;;;;;;8365287;28;19916;-50
2021/09/29 07:04:18;;;;;;;;;;;20.90;49.30;;;;;;8364917;28;19917;-49
2021/09/29 07:08:19;;;;;;;;;;;20.90;49.30;;;;;;8391369;28;19931;-51
2021/09/29 07:12:19;;;;;;;;;;;20.90;49.30;;;;;;8399138;28;20385;-49
2021/09/29 07:16:20;;;;;;;;;;;20.80;49.30;;;;;;8397570;28;19920;-48
2021/09/29 07:20:20;;;;;;;;;;;20.80;49.30;;;;;;8398738;28;19924;-49
2021/09/29 07:24:21;;;;;;;;;;;20.90;49.30;;;;;;8397793;28;19965;-50
2021/09/29 07:28:21;;;;;;;;;;;20.90;49.30;;;;;;8398118;28;19999;-50
2021/09/29 07:32:21;;;;;;;;;;;20.90;49.30;;;;;;8397585;28;20003;-52
2021/09/29 07:36:22;;;;;;;;;;;20.90;49.30;;;;;;8397558;28;20373;-49
2021/09/29 07:40:23;;;;;;;;;;;20.90;49.30;;;;;;8397229;28;20274;-49
2021/09/29 07:44:23;;;;;;;;;;;20.90;49.30;;;;;;8397589;28;19912;-49
2021/09/29 07:48:23;;;;;;;;;;;20.90;49.40;;;;;;8398076;28;20011;-49
2021/09/29 07:52:24;;;;;;;;;;;20.90;49.40;;;;;;8396637;28;19973;-53
2021/09/29 07:56:25;;;;;;;;;;;20.90;49.40;;;;;;8397197;28;19916;-52
2021/09/29 08:00:26;;;;;;;;;;;20.90;49.30;;;;;;8397307;28;19913;-51
2021/09/29 08:04:26;;;;;;;;;;;20.90;49.30;;;;;;8397134;28;19917;-48
2021/09/29 08:08:27;;;;;;;;;;;20.90;49.30;;;;;;8396487;28;19916;-49
2021/09/29 08:12:27;;;;;;;;;;;20.90;49.30;;;;;;8396876;28;20320;-49
2021/09/29 08:16:27;;;;;;;;;;;20.90;49.30;;;;;;8396362;28;19940;-49
2021/09/29 08:20:31;;;;;;;;;;;20.90;49.30;;;;;;8396847;28;19912;-49
2021/09/29 08:24:39;;;;;;;;;;;20.90;49.30;;;;;;8396544;28;19916;-48
2021/09/29 08:28:48;;;;;;;;;;;20.90;49.30;;;;;;8395761;28;19917;-49
2021/09/29 08:45:35;;;;;;;;;;;20.90;49.20;;;;;;8399484;28;20373;-49
2021/09/29 08:58:00;;;;;;;;;;;21.00;49.20;;;;;;8399836;28;19916;-48
2021/09/29 09:19:24;;;;;;;;;;;21.00;49.00;;;;;;8395550;28;19962;-49
2021/09/29 09:23:38;;;;;;;;;;;21.00;49.00;;;;;;8395811;28;19917;-52
2021/09/29 09:27:40;;;;;;;;;;;21.00;48.90;;;;;;8396097;28;19916;-49
2021/09/29 09:31:42;;;;;;;;;;;21.00;48.90;;;;;;8396946;28;19932;-48
2021/09/29 09:35:44;;;;;;;;;;;21.00;48.90;;;;;;8401312;28;19916;-52
2021/09/29 09:39:45;;;;;;;;;;;21.00;48.80;;;;;;8401449;28;19920;-51
2021/09/29 09:43:53;;;;;;;;;;;21.00;48.80;;;;;;8401438;28;20373;-49
2021/09/29 09:47:53;;;;;;;;;;;21.10;48.80;;;;;;8401407;28;19916;-50
2021/09/29 09:51:57;;;;;;;;;;;21.10;48.80;;;;;;8401042;28;20004;-51
2021/09/29 09:55:57;;;;;;;;;;;21.10;48.70;;;;;;8400438;28;19916;-49
2021/09/29 09:59:58;;;;;;;;;;;21.10;48.70;;;;;;8400846;28;19924;-50
2021/09/29 10:04:09;;;;;;;;;;;21.10;48.60;;;;;;8401396;28;19923;-49
2021/09/29 10:08:14;;;;;;;;;;;21.20;48.60;;;;;;8399542;28;19970;-48
2021/09/29 10:29:06;;;;;;;;;;;21.20;48.50;;;;;;8399540;28;19917;-49
2021/09/29 10:33:10;;;;;;;;;;;21.20;48.40;;;;;;8399856;28;20324;-49
2021/09/29 10:37:26;;;;;;;;;;;21.20;48.40;;;;;;8399066;28;19924;-48
2021/09/29 10:41:39;;;;;;;;;;;21.30;48.40;;;;;;8404260;28;19917;-48
2021/09/29 11:28:33;;;;;;;;;;;21.30;48.40;;;;;;8396947;28;20005;-50
2021/09/29 11:32:38;;;;;;;;;;;21.30;48.30;;;;;;8402606;28;19920;-48
2021/09/29 12:11:41;;;;;;;;;;;21.30;48.20;;;;;;8366484;28;19940;-48
2021/09/29 12:15:42;;;;;;;;;;;21.30;48.20;;;;;;8367149;28;19924;-52
2021/09/29 12:19:42;;;;;;;;;;;21.30;48.20;;;;;;8363766;28;19917;-49
2021/09/29 12:23:48;;;;;;;;;;;21.40;48.20;;;;;;8363288;28;19921;-49
2021/09/29 12:27:56;;;;;;;;;;;21.30;48.10;;;;;;8363047;28;20271;-52
2021/09/29 12:32:11;;;;;;;;;;;21.40;48.20;;;;;;8362998;28;19931;-52
2021/09/29 12:36:15;;;;;;;;;;;21.40;48.20;;;;;;8363196;28;20384;-50
2021/09/29 12:40:16;;;;;;;;;;;21.40;48.20;;;;;;8363513;28;19924;-49
2021/09/29 12:44:18;;;;;;;;;;;21.40;48.10;;;;;;8363214;28;19940;-51
2021/09/29 12:48:22;;;;;;;;;;;21.40;48.20;;;;;;8363001;28;19917;-51
2021/09/29 12:52:27;;;;;;;;;;;21.30;48.10;;;;;;8362405;28;20320;-49
2021/09/29 12:56:29;;;;;;;;;;;21.40;48.20;;;;;;8362801;28;19920;-50
2021/09/29 13:00:29;;;;;;;;;;;21.30;48.10;;;;;;8363677;28;19920;-52
2021/09/29 13:04:30;;;;;;;;;;;21.40;48.20;;;;;;8362289;28;20342;-51
2021/09/29 13:08:30;;;;;;;;;;;21.40;48.20;;;;;;8370129;28;19921;-49
2021/09/29 13:12:31;;;;;;;;;;;21.40;48.20;;;;;;8402151;28;19951;-48
2021/09/29 13:16:32;;;;;;;;;;;21.40;48.20;;;;;;8402325;28;19932;-49
2021/09/29 13:20:33;;;;;;;;;;;21.40;48.10;;;;;;8401888;28;19923;-48
2021/09/29 13:25:00;;;;;;;;;;;21.40;48.20;;;;;;8401755;28;19996;-49
2021/09/29 13:37:39;;;;;;;;;;;21.40;48.20;;;;;;8401465;28;19919;-47
2021/09/29 13:41:40;;;;;;;;;;;21.30;48.10;;;;;;8400669;28;20254;-51
2021/09/29 13:45:40;;;;;;;;;;;21.40;48.20;;;;;;8400718;28;20047;-51
2021/09/29 13:49:41;;;;;;;;;;;21.40;48.20;;;;;;8400348;28;20401;-49
2021/09/29 13:53:41;;;;;;;;;;;21.40;48.20;;;;;;8400357;28;19924;-52
2021/09/29 13:57:47;;;;;;;;;;;21.40;48.20;;;;;;8401086;28;20029;-52
2021/09/29 14:14:50;;;;;;;;;;;21.40;48.20;;;;;;8400117;28;19928;-52
2021/09/29 14:35:50;;;;;;;;;;;21.40;48.20;;;;;;8406249;28;20297;-51
2021/09/29 14:39:51;;;;;;;;;;;21.40;48.20;;;;;;8400407;28;19920;-50
2021/09/29 14:43:51;;;;;;;;;;;21.40;48.20;;;;;;8399193;28;19920;-50
2021/09/29 14:47:52;;;;;;;;;;;21.30;48.20;;;;;;8399353;28;19931;-49
2021/09/29 14:51:52;;;;;;;;;;;21.40;48.30;;;;;;8398985;28;19921;-50
2021/09/29 14:55:53;;;;;;;;;;;21.40;48.30;;;;;;8399031;28;19954;-50
2021/09/29 14:59:53;;;;;;;;;;;21.40;48.30;;;;;;8399351;28;19921;-49
2021/09/29 15:03:54;;;;;;;;;;;21.40;48.40;;;;;;8398574;28;19942;-48
2021/09/29 15:07:55;;;;;;;;;;;21.30;48.30;;;;;;8398143;28;19916;-48
2021/09/29 15:11:55;;;;;;;;;;;21.30;48.30;;;;;;8398605;28;19940;-48
2021/09/29 15:28:53;;;;;;;;;;;21.30;48.30;;;;;;8393939;28;19917;-50
2021/09/29 15:50:22;;;;;;;;;;;21.40;48.40;;;;;;8377424;28;19924;-52
2021/09/29 15:54:30;;;;;;;;;;;21.30;48.20;;;;;;8372097;28;19925;-48
2021/09/29 16:03:07;;;;;;;;;;;21.40;48.30;;;;;;8364552;28;19959;-49
2021/09/29 16:07:21;;;;;;;;;;;21.40;48.30;;;;;;8395988;28;19978;-48
2021/09/29 16:36:47;;;;;;;;;;;21.30;48.20;;;;;;8384985;28;20339;-49
2021/09/29 16:40:48;;;;;;;;;;;21.30;48.10;;;;;;8391867;28;19921;-52
2021/09/29 16:44:48;;;;;;;;;;;21.30;48.10;;;;;;8407416;28;19974;-50
2021/09/29 16:48:49;;;;;;;;;;;21.30;48.10;;;;;;8375527;28;20015;-50
2021/09/29 16:52:53;;;;;;;;;;;21.30;48.10;;;;;;8395387;28;19969;-50
2021/09/29 16:56:54;;;;;;;;;;;21.30;48.10;;;;;;8397440;28;19913;-48
2021/09/29 17:01:05;;;;;;;;;;;21.30;48.10;;;;;;8373104;28;19948;-48
2021/09/29 17:05:06;;;;;;;;;;;21.30;48.00;;;;;;8373971;28;19940;-49
2021/09/29 17:09:06;;;;;;;;;;;21.30;48.00;;;;;;8372620;28;19932;-50
2021/09/29 17:13:07;;;;;;;;;;;21.20;48.00;;;;;;8388961;28;19925;-48
2021/09/29 17:17:07;;;;;;;;;;;21.20;48.00;;;;;;8405617;28;19916;-49
2021/09/29 17:21:08;;;;;;;;;;;21.20;48.50;;;;;;8407173;28;20230;-51
2021/09/29 17:25:09;;;;;;;;;;;21.20;48.00;;;;;;8375825;28;19924;-52
2021/09/29 17:29:11;;;;;;;;;;;21.20;48.00;;;;;;8373116;28;19917;-52
2021/09/29 17:33:26;;;;;;;;;;;21.20;48.00;;;;;;8372758;28;19929;-52
2021/09/29 17:54:29;;;;;;;;;;;21.20;48.00;;;;;;8391587;28;20034;-51
2021/09/29 17:58:30;;;;;;;;;;;21.20;48.00;;;;;;8366829;28;19917;-52
2021/09/29 18:02:43;;;;;;;;;;;21.10;48.00;;;;;;8368327;28;19951;-50
2021/09/29 18:11:03;;;;;;;;;;;21.20;48.10;;;;;;8366583;28;19928;-54
2021/09/29 18:15:04;;;;;;;;;;;21.10;48.00;;;;;;8367554;28;20012;-49
2021/09/29 18:19:04;;;;;;;;;;;21.10;48.00;;;;;;8366374;28;19920;-50
2021/09/29 18:23:05;;;;;;;;;;;21.20;48.10;;;;;;8366530;28;19920;-49
2021/09/29 18:27:06;;;;;;;;;;;21.10;48.00;;;;;;8366894;28;19924;-49
2021/09/29 18:31:07;;;;;;;;;;;21.10;48.00;;;;;;8398084;28;19912;-47
2021/09/29 18:35:10;;;;;;;;;;;21.10;48.00;;;;;;8399620;28;19921;-48
2021/09/29 18:39:11;;;;;;;;;;;21.10;48.00;;;;;;8400533;28;20037;-48
2021/09/29 18:43:11;;;;;;;;;;;21.10;48.00;;;;;;8398999;28;19920;-48
2021/09/29 18:47:13;;;;;;;;;;;21.10;48.00;;;;;;8378887;28;20395;-48
2021/09/29 18:51:14;;;;;;;;;;;21.10;48.00;;;;;;8366184;28;19970;-48
2021/09/29 18:55:22;;;;;;;;;;;21.10;48.00;;;;;;8365561;28;19925;-49
2021/09/29 19:03:50;;;;;;;;;;;21.10;48.00;;;;;;8365385;28;19944;-48
2021/09/29 19:07:54;;;;;;;;;;;21.10;48.00;;;;;;8365935;28;19936;-48
2021/09/29 19:11:55;;;;;;;;;;;21.00;48.00;;;;;;8364637;28;19921;-51
2021/09/29 19:15:56;;;;;;;;;;;21.00;48.00;;;;;;8365921;28;19920;-49
2021/09/29 19:19:56;;;;;;;;;;;21.00;48.00;;;;;;8395343;28;19916;-48
2021/09/29 19:23:57;;;;;;;;;;;21.00;48.00;;;;;;8390365;28;19928;-50
2021/09/29 19:28:00;;;;;;;;;;;21.00;48.00;;;;;;8379296;28;19917;-50
2021/09/29 19:32:01;;;;;;;;;;;21.00;48.00;;;;;;8364305;28;19925;-49
2021/09/29 19:36:02;;;;;;;;;;;21.00;48.00;;;;;;8365375;28;19939;-48
2021/09/29 19:40:03;;;;;;;;;;;21.00;48.00;;;;;;8364774;28;19940;-48
2021/09/29 19:44:06;;;;;;;;;;;21.00;48.00;;;;;;8364028;28;19916;-49
2021/09/29 20:09:41;;;;;;;;;;;21.00;48.00;;;;;;8368194;28;20304;-48
2021/09/29 20:13:42;;;;;;;;;;;20.90;48.00;;;;;;8363148;28;19937;-48
2021/09/29 20:17:43;;;;;;;;;;;20.90;47.90;;;;;;8363449;28;19917;-48
2021/09/29 20:21:43;;;;;;;;;;;21.00;48.00;;;;;;8363530;28;19963;-50
2021/09/29 20:25:44;;;;;;;;;;;21.00;48.00;;;;;;8362971;28;19916;-48
2021/09/29 20:29:44;;;;;;;;;;;20.90;48.00;;;;;;8363390;28;19917;-48
2021/09/29 20:34:11;;;;;;;;;;;20.90;48.00;;;;;;8363989;28;19966;-48
2021/09/29 20:46:47;;;;;;;;;;;20.90;48.00;;;;;;8430011;28;19923;-48
2021/09/29 20:50:52;;;;;;;;;;;20.90;48.00;;;;;;8429783;28;19959;-48
2021/09/29 20:54:54;;;;;;;;;;;20.90;48.00;;;;;;8429601;28;20014;-47
2021/09/29 20:58:54;;;;;;;;;;;20.90;48.00;;;;;;8429534;28;19912;-48
2021/09/29 21:02:55;;;;;;;;;;;20.90;48.00;;;;;;8429330;28;19958;-48
2021/09/29 21:06:55;;;;;;;;;;;20.90;48.00;;;;;;8429192;28;19963;-48
2021/09/29 21:10:59;;;;;;;;;;;20.90;48.00;;;;;;8428929;28;19920;-47
2021/09/29 21:15:16;;;;;;;;;;;20.90;48.00;;;;;;8429982;28;20340;-50
2021/09/29 21:19:16;;;;;;;;;;;20.90;48.00;;;;;;8429149;28;20305;-47
2021/09/29 21:23:17;;;;;;;;;;;20.80;48.00;;;;;;8428894;28;20003;-48
2021/09/29 21:27:18;;;;;;;;;;;20.90;48.00;;;;;;8430303;28;20023;-48
2021/09/29 21:31:18;;;;;;;;;;;20.90;48.00;;;;;;8434805;28;20404;-48
2021/09/29 21:35:29;;;;;;;;;;;20.80;48.00;;;;;;8436106;28;19950;-48
2021/09/29 21:39:49;;;;;;;;;;;20.90;48.00;;;;;;8435279;28;20426;-48
2021/09/29 22:23:31;;;;;;;;;;;20.80;48.00;;;;;;8434081;28;19912;-47
2021/09/29 22:53:36;;;;;;;;;;;20.80;48.00;;;;;;8433336;28;19942;-48
2021/09/29 23:05:31;;;;;;;;;;;20.70;48.00;;;;;;8440132;28;20353;-47
2021/09/29 23:10:10;;;;;;;;;;;20.70;48.00;;;;;;8437343;28;20316;-47
2021/09/29 23:14:28;;;;;;;;;;;20.70;48.00;;;;;;8428633;28;19932;-47
2021/09/29 23:23:11;;;;;;;;;;;20.70;48.00;;;;;;8431332;28;19942;-47
2021/09/29 23:35:49;;;;;;;;;;;20.70;48.00;;;;;;8438667;28;19966;-48
2021/09/29 23:39:50;;;;;;;;;;;20.70;48.00;;;;;;8431184;28;20007;-48
2021/09/29 23:43:50;;;;;;;;;;;20.70;48.00;;;;;;8430659;28;20285;-48
2021/09/29 23:47:51;;;;;;;;;;;20.70;48.00;;;;;;8430943;28;20406;-48
2021/09/29 23:51:52;;;;;;;;;;;20.60;48.00;;;;;;8430607;28;20027;-48
2021/09/29 23:55:52;;;;;;;;;;;20.60;48.00;;;;;;8430833;28;19912;-48
2021/09/29 23:59:53;;;;;;;;;;;20.60;48.00;;;;;;8430560;28;19940;-47
